createdAt,value
2022-08-26T00:02:23.697Z,21.26
2022-08-26T00:04:52.779Z,21.25
2022-08-26T00:07:21.565Z,21.25
2022-08-26T00:09:54.390Z,21.25
2022-08-26T00:12:35.851Z,21.26
2022-08-26T00:15:06.323Z,21.27
2022-08-26T00:17:37.007Z,21.27
2022-08-26T00:20:11.928Z,21.28
2022-08-26T00:22:40.899Z,21.29
2022-08-26T00:25:12.208Z,21.30
2022-08-26T00:27:41.846Z,21.31
2022-08-26T00:30:15.946Z,21.31
2022-08-26T00:32:53.745Z,21.32
2022-08-26T00:35:23.473Z,21.33
2022-08-26T00:37:53.008Z,21.33
2022-08-26T00:40:24.274Z,21.34
2022-08-26T00:42:53.625Z,21.35
2022-08-26T00:45:22.743Z,21.36
2022-08-26T00:47:57.259Z,21.37
2022-08-26T00:50:30.548Z,21.38
2022-08-26T00:53:03.388Z,21.40
2022-08-26T00:55:38.231Z,21.40
2022-08-26T00:58:08.806Z,21.41
2022-08-26T01:00:38.199Z,21.43
2022-08-26T01:03:11.630Z,21.44
2022-08-26T01:05:43.384Z,21.47
2022-08-26T01:08:12.448Z,21.48
2022-08-26T01:10:41.947Z,21.50
2022-08-26T01:13:15.193Z,21.51
2022-08-26T01:15:49.005Z,21.52
2022-08-26T01:18:20.605Z,21.54
2022-08-26T01:20:59.722Z,21.55
2022-08-26T01:23:34.744Z,21.58
2022-08-26T01:26:08.829Z,21.60
2022-08-26T01:28:51.409Z,21.62
2022-08-26T01:31:24.871Z,21.63
2022-08-26T01:34:00.805Z,21.66
2022-08-26T01:36:30.430Z,21.68
2022-08-26T01:39:00.975Z,21.70
2022-08-26T01:41:36.578Z,21.72
2022-08-26T01:44:09.796Z,21.72
2022-08-26T01:46:39.267Z,21.73
2022-08-26T01:49:09.814Z,21.75
2022-08-26T01:51:41.583Z,21.76
2022-08-26T01:54:13.748Z,21.78
2022-08-26T01:56:43.395Z,21.80
2022-08-26T01:59:17.509Z,21.80
2022-08-26T02:01:46.827Z,21.81
2022-08-26T02:04:22.535Z,21.82
2022-08-26T02:06:52.756Z,21.84
2022-08-26T02:09:25.757Z,21.83
2022-08-26T02:11:56.352Z,21.85
2022-08-26T02:14:29.154Z,21.85
2022-08-26T02:16:58.752Z,21.85
2022-08-26T02:19:32.713Z,21.85
2022-08-26T02:22:05.542Z,21.86
2022-08-26T02:24:50.106Z,21.86
2022-08-26T02:27:23.760Z,21.87
2022-08-26T02:29:56.573Z,21.86
2022-08-26T02:32:26.114Z,21.87
2022-08-26T02:34:56.279Z,21.87
2022-08-26T02:37:29.516Z,21.87
2022-08-26T02:40:00.412Z,21.88
2022-08-26T02:42:29.567Z,21.89
2022-08-26T02:44:58.733Z,21.90
2022-08-26T02:47:29.213Z,21.91
2022-08-26T02:50:00.658Z,21.91
2022-08-26T02:52:29.857Z,21.92
2022-08-26T02:55:00.122Z,21.92
2022-08-26T02:57:29.257Z,21.93
2022-08-26T02:59:58.781Z,21.92
2022-08-26T03:02:29.360Z,21.94
2022-08-26T03:05:02.183Z,21.96
2022-08-26T03:07:32.035Z,21.97
2022-08-26T03:13:29.670Z,21.97
2022-08-26T03:16:01.493Z,21.97
2022-08-26T03:18:30.851Z,21.99
2022-08-26T03:21:00.338Z,22.00
2022-08-26T03:23:29.431Z,22.01
2022-08-26T03:25:59.898Z,22.02
2022-08-26T03:28:29.101Z,22.03
2022-08-26T03:30:57.857Z,22.04
2022-08-26T03:33:27.289Z,22.03
2022-08-26T03:35:56.859Z,22.03
2022-08-26T03:38:26.315Z,22.04
2022-08-26T03:40:56.309Z,22.05
2022-08-26T03:43:27.959Z,22.05
2022-08-26T03:45:57.012Z,22.06
2022-08-26T03:48:26.596Z,22.07
2022-08-26T03:50:55.734Z,22.07
2022-08-26T03:53:26.871Z,22.08
2022-08-26T03:55:56.277Z,22.08
2022-08-26T03:58:28.044Z,22.09
2022-08-26T04:00:57.307Z,22.10
2022-08-26T04:03:41.050Z,22.10
2022-08-26T04:06:10.311Z,22.11
2022-08-26T04:08:39.551Z,22.12
2022-08-26T04:11:09.365Z,22.11
2022-08-26T04:13:40.813Z,22.13
2022-08-26T04:16:10.284Z,22.13
2022-08-26T04:18:46.565Z,22.13
2022-08-26T04:21:16.270Z,22.14
2022-08-26T04:23:46.955Z,22.14
2022-08-26T04:26:18.020Z,22.15
2022-08-26T04:28:49.193Z,22.16
2022-08-26T04:31:19.882Z,22.17
2022-08-26T04:33:50.958Z,22.18
2022-08-26T04:36:20.460Z,22.20
2022-08-26T04:38:50.745Z,22.19
2022-08-26T04:41:21.236Z,22.22
2022-08-26T04:43:52.663Z,22.23
2022-08-26T04:46:24.869Z,22.24
2022-08-26T04:48:55.221Z,22.25
2022-08-26T04:51:27.929Z,22.27
2022-08-26T04:53:57.747Z,22.29
2022-08-26T04:56:26.944Z,22.31
2022-08-26T04:58:57.585Z,22.33
2022-08-26T05:01:26.990Z,22.35
2022-08-26T05:03:56.307Z,22.37
2022-08-26T05:06:26.030Z,22.40
2022-08-26T05:08:56.070Z,22.41
2022-08-26T05:11:25.195Z,22.43
2022-08-26T05:13:54.201Z,22.45
2022-08-26T05:16:24.750Z,22.48
2022-08-26T05:18:54.986Z,22.50
2022-08-26T05:21:26.632Z,22.52
2022-08-26T05:23:56.736Z,22.55
2022-08-26T05:26:28.377Z,22.57
2022-08-26T05:28:58.283Z,22.60
2022-08-26T05:31:31.576Z,22.63
2022-08-26T05:34:03.684Z,22.66
2022-08-26T05:36:35.085Z,22.69
2022-08-26T05:39:06.010Z,22.72
2022-08-26T05:41:45.432Z,22.76
2022-08-26T05:44:18.845Z,22.79
2022-08-26T05:46:49.493Z,22.82
2022-08-26T05:49:20.414Z,22.85
2022-08-26T05:51:51.775Z,22.88
2022-08-26T05:54:22.382Z,22.91
2022-08-26T05:56:52.134Z,22.94
2022-08-26T05:59:24.658Z,22.97
2022-08-26T06:01:55.770Z,23.00
2022-08-26T06:04:26.970Z,23.02
2022-08-26T06:06:59.020Z,23.05
2022-08-26T06:09:28.324Z,23.08
2022-08-26T06:11:58.828Z,23.11
2022-08-26T06:14:27.778Z,23.15
2022-08-26T06:16:58.941Z,23.17
2022-08-26T06:19:33.038Z,23.19
2022-08-26T06:22:24.128Z,23.22
2022-08-26T06:25:12.129Z,23.24
2022-08-26T06:27:41.404Z,23.29
2022-08-26T06:30:11.566Z,23.31
2022-08-26T06:32:42.812Z,23.35
2022-08-26T06:35:12.413Z,23.37
2022-08-26T06:37:42.884Z,23.40
2022-08-26T06:40:12.745Z,23.43
2022-08-26T06:42:42.191Z,23.46
2022-08-26T06:45:13.082Z,23.49
2022-08-26T06:47:43.948Z,23.52
2022-08-26T06:50:13.942Z,23.55
2022-08-26T06:52:43.715Z,23.58
2022-08-26T06:55:14.266Z,23.60
2022-08-26T06:57:43.432Z,23.63
2022-08-26T07:00:14.036Z,23.67
2022-08-26T07:02:46.842Z,23.68
2022-08-26T07:05:16.664Z,23.70
2022-08-26T07:07:45.740Z,23.73
2022-08-26T07:10:14.902Z,23.76
2022-08-26T07:12:47.082Z,23.79
2022-08-26T07:15:16.780Z,23.83
2022-08-26T07:17:47.829Z,23.87
2022-08-26T07:20:18.122Z,23.91
2022-08-26T07:22:48.689Z,23.97
2022-08-26T07:25:19.308Z,24.04
2022-08-26T07:27:54.096Z,24.13
2022-08-26T07:30:23.679Z,24.19
2022-08-26T07:32:56.621Z,24.26
2022-08-26T07:35:26.631Z,24.34
2022-08-26T07:37:57.168Z,24.42
2022-08-26T07:40:26.432Z,24.52
2022-08-26T07:42:55.566Z,24.63
2022-08-26T07:45:24.968Z,24.71
2022-08-26T07:47:56.482Z,24.79
2022-08-26T07:50:49.815Z,24.86
2022-08-26T07:53:16.206Z,24.92
2022-08-26T07:55:47.341Z,24.97
2022-08-26T07:58:16.746Z,25.05
2022-08-26T08:00:46.417Z,25.11
2022-08-26T08:03:17.414Z,25.17
2022-08-26T08:05:47.278Z,25.22
2022-08-26T08:08:26.376Z,25.30
2022-08-26T08:10:57.270Z,25.36
2022-08-26T08:13:26.554Z,25.43
2022-08-26T08:15:55.524Z,25.50
2022-08-26T08:18:28.513Z,25.58
2022-08-26T08:21:10.832Z,25.64
2022-08-26T08:23:47.349Z,25.72
2022-08-26T08:26:16.869Z,25.78
2022-08-26T08:28:46.301Z,25.82
2022-08-26T08:31:45.027Z,25.86
2022-08-26T08:34:12.270Z,25.89
2022-08-26T08:36:41.630Z,25.91
2022-08-26T08:39:11.714Z,25.94
2022-08-26T08:42:06.510Z,25.97
2022-08-26T08:44:39.124Z,25.99
2022-08-26T08:47:26.976Z,26.02
2022-08-26T08:50:04.873Z,26.04
2022-08-26T08:52:37.156Z,26.07
2022-08-26T08:55:11.153Z,26.11
2022-08-26T08:57:54.575Z,26.14
2022-08-26T09:00:30.588Z,26.18
2022-08-26T09:03:08.833Z,26.20
2022-08-26T09:05:48.730Z,26.24
2022-08-26T09:08:23.254Z,26.26
2022-08-26T09:10:56.520Z,26.27
2022-08-26T09:13:27.525Z,26.29
2022-08-26T09:16:06.746Z,26.32
2022-08-26T09:18:52.852Z,26.33
2022-08-26T09:21:26.054Z,26.33
2022-08-26T09:23:56.925Z,26.34
2022-08-26T09:26:30.642Z,26.35
2022-08-26T09:29:02.894Z,26.36
2022-08-26T09:31:35.363Z,26.37
2022-08-26T09:34:13.124Z,26.40
2022-08-26T09:36:50.329Z,26.43
2022-08-26T09:39:33.470Z,26.49
2022-08-26T09:42:10.000Z,26.55
2022-08-26T09:44:55.886Z,26.61
2022-08-26T09:47:31.776Z,26.66
2022-08-26T09:50:12.447Z,26.71
2022-08-26T09:52:43.304Z,26.76
2022-08-26T09:55:16.436Z,26.80
2022-08-26T09:57:48.912Z,26.86
2022-08-26T10:00:31.943Z,26.91
2022-08-26T10:03:04.479Z,26.98
2022-08-26T10:05:41.034Z,27.03
2022-08-26T10:08:28.600Z,27.10
2022-08-26T10:10:58.962Z,27.18
2022-08-26T10:13:34.365Z,27.25
2022-08-26T10:16:15.848Z,27.33
2022-08-26T10:18:48.752Z,27.40
2022-08-26T10:21:25.676Z,27.48
2022-08-26T10:24:00.466Z,27.57
2022-08-26T10:26:40.728Z,27.68
2022-08-26T10:29:15.986Z,27.76
2022-08-26T10:31:51.393Z,27.86
2022-08-26T10:34:21.380Z,27.94
2022-08-26T10:37:14.896Z,28.00
2022-08-26T10:39:58.462Z,28.05
2022-08-26T10:42:35.367Z,28.10
2022-08-26T10:45:14.861Z,28.15
2022-08-26T10:47:49.756Z,28.18
2022-08-26T10:50:19.744Z,28.19
2022-08-26T10:53:00.178Z,28.21
2022-08-26T10:55:37.200Z,28.23
2022-08-26T10:58:26.175Z,28.24
2022-08-26T11:01:23.270Z,28.27
2022-08-26T11:04:07.202Z,28.31
2022-08-26T11:06:36.987Z,28.34
2022-08-26T11:09:08.598Z,28.37
2022-08-26T11:11:50.475Z,28.41
2022-08-26T11:14:41.046Z,28.43
2022-08-26T11:17:57.555Z,28.47
2022-08-26T11:20:36.906Z,28.49
2022-08-26T11:23:36.250Z,28.55
2022-08-26T11:26:35.476Z,28.61
2022-08-26T11:29:13.516Z,28.68
2022-08-26T11:31:57.680Z,28.77
2022-08-26T11:35:00.471Z,28.85
2022-08-26T11:37:37.567Z,28.92
2022-08-26T11:40:13.435Z,28.99
2022-08-26T11:42:49.181Z,29.06
2022-08-26T11:45:26.524Z,29.14
2022-08-26T11:47:55.664Z,29.21
2022-08-26T11:50:28.176Z,29.26
2022-08-26T11:53:02.014Z,29.36
2022-08-26T11:55:34.292Z,29.45
2022-08-26T11:58:07.512Z,29.52
2022-08-26T12:00:53.623Z,29.61
2022-08-26T12:03:26.363Z,29.66
2022-08-26T12:05:57.306Z,29.72
2022-08-26T12:08:31.165Z,29.77
2022-08-26T12:11:09.690Z,29.85
2022-08-26T12:13:39.308Z,29.89
2022-08-26T12:16:10.582Z,29.93
2022-08-26T12:18:40.681Z,29.95
2022-08-26T12:21:20.322Z,29.97
2022-08-26T12:23:52.882Z,30.00
2022-08-26T12:26:26.082Z,30.01
2022-08-26T12:28:58.688Z,30.04
2022-08-26T12:31:32.941Z,30.08
2022-08-26T12:34:05.014Z,30.13
2022-08-26T12:36:38.988Z,30.18
2022-08-26T12:39:10.705Z,30.20
2022-08-26T12:41:42.985Z,30.26
2022-08-26T12:44:37.357Z,30.32
2022-08-26T12:47:12.266Z,30.37
2022-08-26T12:49:43.024Z,30.43
2022-08-26T12:52:33.246Z,30.50
2022-08-26T12:55:06.971Z,30.55
2022-08-26T12:57:39.144Z,30.61
2022-08-26T13:00:32.787Z,30.66
2022-08-26T13:03:04.212Z,30.70
2022-08-26T13:05:35.812Z,30.74
2022-08-26T13:08:14.555Z,30.79
2022-08-26T13:10:46.655Z,30.83
2022-08-26T13:13:16.055Z,30.87
2022-08-26T13:15:45.085Z,30.91
2022-08-26T13:18:15.549Z,30.93
2022-08-26T13:20:45.622Z,30.97
2022-08-26T13:23:15.306Z,30.98
2022-08-26T13:25:45.114Z,31.04
2022-08-26T13:28:14.627Z,31.07
2022-08-26T13:30:47.855Z,31.11
2022-08-26T13:33:21.463Z,31.15
2022-08-26T13:35:50.428Z,31.22
2022-08-26T13:38:32.930Z,31.29
2022-08-26T13:41:03.634Z,31.42
2022-08-26T13:43:33.311Z,31.60
2022-08-26T13:46:02.719Z,31.90
2022-08-26T13:48:35.159Z,32.34
2022-08-26T13:51:08.952Z,32.84
2022-08-26T13:53:38.346Z,33.38
2022-08-26T13:56:11.240Z,33.96
2022-08-26T13:58:40.252Z,34.51
2022-08-26T14:01:10.052Z,35.08
2022-08-26T14:03:41.265Z,35.65
2022-08-26T14:06:11.076Z,36.15
2022-08-26T14:08:40.784Z,36.69
2022-08-26T14:11:10.174Z,37.15
2022-08-26T14:13:39.791Z,37.60
2022-08-26T14:16:13.506Z,37.99
2022-08-26T14:18:50.014Z,38.37
2022-08-26T14:21:21.644Z,38.75
2022-08-26T14:23:50.982Z,39.08
2022-08-26T14:26:28.539Z,39.44
2022-08-26T14:28:59.951Z,39.81
2022-08-26T14:31:30.156Z,40.14
2022-08-26T14:34:03.740Z,40.47
2022-08-26T14:36:33.069Z,40.77
2022-08-26T14:39:05.689Z,41.00
2022-08-26T14:41:37.191Z,41.26
2022-08-26T14:44:09.129Z,41.47
2022-08-26T14:46:44.100Z,41.69
2022-08-26T14:49:15.654Z,41.89
2022-08-26T14:51:44.975Z,42.12
2022-08-26T14:54:14.781Z,42.32
2022-08-26T14:56:49.038Z,42.54
2022-08-26T14:59:20.839Z,42.76
2022-08-26T15:01:50.525Z,42.93
2022-08-26T15:04:21.553Z,43.11
2022-08-26T15:06:51.326Z,43.24
2022-08-26T15:09:21.254Z,43.39
2022-08-26T15:11:50.402Z,43.47
2022-08-26T15:14:20.691Z,43.56
2022-08-26T15:16:51.938Z,43.60
2022-08-26T15:19:25.014Z,43.68
2022-08-26T15:21:54.427Z,43.75
2022-08-26T15:24:26.794Z,43.84
2022-08-26T15:26:56.473Z,43.92
2022-08-26T15:29:25.818Z,44.02
2022-08-26T15:31:57.448Z,44.08
2022-08-26T15:34:28.434Z,44.14
2022-08-26T15:36:57.645Z,44.20
2022-08-26T15:39:26.618Z,44.25
2022-08-26T15:41:56.550Z,44.27
2022-08-26T15:44:27.571Z,44.28
2022-08-26T15:46:58.829Z,44.34
2022-08-26T15:49:29.627Z,44.38
2022-08-26T15:51:58.946Z,44.41
2022-08-26T15:54:28.010Z,44.45
2022-08-26T15:56:59.360Z,44.47
2022-08-26T15:59:28.638Z,44.47
2022-08-26T16:01:57.823Z,44.47
2022-08-26T16:04:28.310Z,44.46
2022-08-26T16:06:57.586Z,44.41
2022-08-26T16:09:27.839Z,44.35
2022-08-26T16:12:00.214Z,44.28
2022-08-26T16:14:29.751Z,44.23
2022-08-26T16:16:58.764Z,44.15
2022-08-26T16:19:29.151Z,44.07
2022-08-26T16:21:58.327Z,43.99
2022-08-26T16:24:30.515Z,43.91
2022-08-26T16:26:59.964Z,43.79
2022-08-26T16:29:29.428Z,43.61
2022-08-26T16:31:58.684Z,43.44
2022-08-26T16:34:29.050Z,43.22
2022-08-26T16:36:58.496Z,42.98
2022-08-26T16:39:28.032Z,42.66
2022-08-26T16:41:57.225Z,42.29
2022-08-26T16:44:28.047Z,41.89
2022-08-26T16:47:00.171Z,41.45
2022-08-26T16:49:30.511Z,41.01
2022-08-26T16:51:59.471Z,40.58
2022-08-26T16:54:28.772Z,40.15
2022-08-26T16:56:58.091Z,39.72
2022-08-26T16:59:27.605Z,39.33
2022-08-26T17:01:56.829Z,38.94
2022-08-26T17:04:26.174Z,38.57
2022-08-26T17:06:58.086Z,38.18
2022-08-26T17:09:27.968Z,37.81
2022-08-26T17:11:57.169Z,37.45
2022-08-26T17:14:26.599Z,37.12
2022-08-26T17:16:55.645Z,36.79
2022-08-26T17:19:25.478Z,36.45
2022-08-26T17:21:54.487Z,36.15
2022-08-26T17:24:25.551Z,35.85
2022-08-26T17:26:55.615Z,35.58
2022-08-26T17:29:24.985Z,35.28
2022-08-26T17:31:54.275Z,35.02
2022-08-26T17:34:24.384Z,34.75
2022-08-26T17:36:53.445Z,34.50
2022-08-26T17:39:23.936Z,34.25
2022-08-26T17:41:53.086Z,34.01
2022-08-26T17:44:22.081Z,33.77
2022-08-26T17:46:51.160Z,33.56
2022-08-26T17:49:20.454Z,33.34
2022-08-26T17:51:50.282Z,33.13
2022-08-26T17:54:19.659Z,32.93
2022-08-26T17:56:50.134Z,32.71
2022-08-26T17:59:19.208Z,32.51
2022-08-26T18:01:49.220Z,32.29
2022-08-26T18:04:18.524Z,32.11
2022-08-26T18:06:47.617Z,31.92
2022-08-26T18:09:16.835Z,31.74
2022-08-26T18:11:45.844Z,31.55
2022-08-26T18:14:16.254Z,31.37
2022-08-26T18:16:45.469Z,31.19
2022-08-26T18:19:14.663Z,31.03
2022-08-26T18:21:43.963Z,30.86
2022-08-26T18:24:14.344Z,30.69
2022-08-26T18:26:48.867Z,30.54
2022-08-26T18:29:20.640Z,30.37
2022-08-26T18:31:49.678Z,30.22
2022-08-26T18:34:19.535Z,30.07
2022-08-26T18:36:49.968Z,29.88
2022-08-26T18:39:23.474Z,29.68
2022-08-26T18:41:53.552Z,29.48
2022-08-26T18:44:24.576Z,29.28
2022-08-26T18:46:55.090Z,29.08
2022-08-26T18:49:24.797Z,28.91
2022-08-26T18:51:53.948Z,28.73
2022-08-26T18:54:23.202Z,28.57
2022-08-26T18:56:52.284Z,28.38
2022-08-26T18:59:30.495Z,28.23
2022-08-26T19:02:00.322Z,28.06
2022-08-26T19:04:29.622Z,27.89
2022-08-26T19:06:58.710Z,27.72
2022-08-26T19:09:28.228Z,27.55
2022-08-26T19:11:58.141Z,27.37
2022-08-26T19:14:28.978Z,27.19
2022-08-26T19:17:01.204Z,27.00
2022-08-26T19:19:31.798Z,26.82
2022-08-26T19:22:03.163Z,26.67
2022-08-26T19:24:32.351Z,26.52
2022-08-26T19:27:03.667Z,26.40
2022-08-26T19:29:36.545Z,26.25
2022-08-26T19:32:07.097Z,26.10
2022-08-26T19:34:36.871Z,25.97
2022-08-26T19:37:06.138Z,25.84
2022-08-26T19:39:36.117Z,25.69
2022-08-26T19:42:05.558Z,25.57
2022-08-26T19:44:53.290Z,25.44
2022-08-26T19:47:22.593Z,25.32
2022-08-26T19:49:55.273Z,25.18
2022-08-26T19:52:30.047Z,25.07
2022-08-26T19:54:59.442Z,24.94
2022-08-26T19:57:28.813Z,24.83
2022-08-26T20:00:00.278Z,24.73
2022-08-26T20:02:30.661Z,24.64
2022-08-26T20:04:59.970Z,24.51
2022-08-26T20:07:28.951Z,24.43
2022-08-26T20:09:59.663Z,24.32
2022-08-26T20:12:29.323Z,24.21
2022-08-26T20:14:59.836Z,24.12
2022-08-26T20:17:29.089Z,24.04
2022-08-26T20:20:32.803Z,23.97
2022-08-26T20:23:05.257Z,23.87
2022-08-26T20:25:35.491Z,23.80
2022-08-26T20:28:05.212Z,23.72
2022-08-26T20:30:35.603Z,23.60
2022-08-26T20:33:04.582Z,23.52
2022-08-26T20:35:34.015Z,23.45
2022-08-26T20:38:03.101Z,23.40
2022-08-26T20:40:32.531Z,23.33
2022-08-26T20:43:01.872Z,23.24
2022-08-26T20:45:30.839Z,23.18
2022-08-26T20:48:01.278Z,23.10
2022-08-26T20:50:33.205Z,23.03
2022-08-26T20:53:02.441Z,22.95
2022-08-26T20:55:31.707Z,22.88
2022-08-26T20:58:00.800Z,22.82
2022-08-26T21:00:29.780Z,22.75
2022-08-26T21:03:01.251Z,22.69
2022-08-26T21:05:30.225Z,22.63
2022-08-26T21:07:59.793Z,22.58
2022-08-26T21:10:30.346Z,22.52
2022-08-26T21:12:59.724Z,22.46
2022-08-26T21:15:29.019Z,22.40
2022-08-26T21:18:03.380Z,22.34
2022-08-26T21:20:33.098Z,22.26
2022-08-26T21:23:02.493Z,22.21
2022-08-26T21:25:31.491Z,22.16
2022-08-26T21:28:00.575Z,22.10
2022-08-26T21:30:30.041Z,22.05
2022-08-26T21:32:59.545Z,22.02
2022-08-26T21:35:29.990Z,21.96
2022-08-26T21:37:59.611Z,21.91
2022-08-26T21:40:29.336Z,21.87
2022-08-26T21:42:58.510Z,21.81
2022-08-26T21:45:27.780Z,21.76
2022-08-26T21:47:57.093Z,21.70
2022-08-26T21:50:26.132Z,21.65
2022-08-26T21:52:56.879Z,21.58
2022-08-26T21:55:25.954Z,21.54
2022-08-26T21:57:55.107Z,21.49
2022-08-26T22:00:24.579Z,21.45
2022-08-26T22:02:53.567Z,21.39
2022-08-26T22:05:22.624Z,21.34
2022-08-26T22:07:51.797Z,21.29
2022-08-26T22:10:22.411Z,21.23
2022-08-26T22:12:51.555Z,21.19
2022-08-26T22:15:23.312Z,21.12
2022-08-26T22:17:52.306Z,21.06
2022-08-26T22:20:21.625Z,21.03
2022-08-26T22:22:50.724Z,20.98
2022-08-26T22:25:20.186Z,20.94
2022-08-26T22:27:50.805Z,20.91
2022-08-26T22:30:20.470Z,20.88
2022-08-26T22:32:49.619Z,20.84
2022-08-26T22:35:29.036Z,20.80
2022-08-26T22:37:59.059Z,20.76
2022-08-26T22:40:28.417Z,20.71
2022-08-26T22:43:00.106Z,20.66
2022-08-26T22:45:31.370Z,20.64
2022-08-26T22:48:01.586Z,20.61
2022-08-26T22:50:30.893Z,20.58
2022-08-26T22:52:59.695Z,20.55
2022-08-26T22:55:28.633Z,20.51
2022-08-26T22:57:59.255Z,20.47
2022-08-26T23:00:32.347Z,20.45
2022-08-26T23:03:03.303Z,20.41
2022-08-26T23:05:32.954Z,20.39
2022-08-26T23:08:03.018Z,20.36
2022-08-26T23:10:32.633Z,20.34
2022-08-26T23:13:03.778Z,20.31
2022-08-26T23:15:33.134Z,20.28
2022-08-26T23:18:02.511Z,20.26
2022-08-26T23:20:32.232Z,20.23
2022-08-26T23:23:02.344Z,20.20
2022-08-26T23:25:32.463Z,20.18
2022-08-26T23:28:03.883Z,20.15
2022-08-26T23:30:34.529Z,20.13
2022-08-26T23:33:03.850Z,20.09
2022-08-26T23:35:31.998Z,20.05
2022-08-26T23:38:02.819Z,20.02
2022-08-26T23:40:35.765Z,19.99
2022-08-26T23:43:08.666Z,19.95
2022-08-26T23:45:37.868Z,19.93
2022-08-26T23:48:07.640Z,19.90
2022-08-26T23:50:54.274Z,19.85
2022-08-26T23:53:24.371Z,19.82
2022-08-26T23:55:54.883Z,19.79
2022-08-26T23:58:25.585Z,19.76
